ftmx52

TAF MMGL 090346Z 0906/1012 24005KT P6SM SKC TX27/0921Z TN05/0913Z 
         FM091700 24010KT P6SM SCT250 
         FM100300 00000KT P6SM BKN250=
TAF MMMM 090346Z 0906/1012 25005KT P6SM SCT250 
         FM091200 00000KT 5SM HZ SKC 
         FM091800 23010KT P6SM SKC 
         FM100300 00000KT P6SM SCT300 
         FM101000 00000KT 5SM HZ SKC=
TAF MMPR 090346Z 0906/1012 00000KT P6SM SKC TX29/0919Z TN17/0912Z 
         FM091800 21010KT P6SM SCT250 
         FM100300 02005KT P6SM BKN250=
TAF MMSP 090346Z 0906/1012 00000KT P6SM SKC TX28/0922Z TN05/0913Z 
         BECMG 0911/0912 5SM HZ 
         FM091800 24010KT P6SM SCT230 
         FM100300 15005KT P6SM SCT230=
TAF MMZC 090346Z 0906/1012 18005KT P6SM SCT200 TX24/0921Z TN04/0913Z 
         FM091800 25015KT P6SM SCT250 
         FM100300 21005KT P6SM BKN250=
TAF MMZO 090346Z 0906/1006 00000KT P6SM SKC 
         FM091800 22010KT P6SM SKC 
         FM100300 00000KT P6SM SKC=